Time,TemperatureF,DewpointF,PressureIn,WindDirection,WindDirectionDegrees,WindSpeedMPH,WindSpeedGustMPH,Humidity,HourlyPrecipIn,Conditions,Clouds,dailyrainin,SoftwareType,DateUTC
2013-07-25 00:00:00,74.9,70.1,29.80,East,90,0.0,0.0,85,0.00,,,0.00,WUHU216HW,2013-07-25 04:00:00,
2013-07-25 00:01:00,74.9,70.1,29.80,East,90,0.0,0.0,85,0.00,,,0.00,WUHU216HW,2013-07-25 04:01:00,
2013-07-25 00:02:00,74.9,70.1,29.80,East,90,0.0,0.0,85,0.00,,,0.00,WUHU216HW,2013-07-25 04:02:00,
2013-07-25 00:07:00,74.9,70.1,29.80,East,90,0.0,0.0,85,0.00,,,0.00,WUHU216HW,2013-07-25 04:07:00,
2013-07-25 00:30:00,75.2,70.1,29.81,East,90,0.0,0.0,84,0.00,,,0.00,WUHU216HW,2013-07-25 04:30:00,
2013-07-25 00:35:00,75.2,70.1,29.81,East,90,0.0,0.0,84,0.00,,,0.00,WUHU216HW,2013-07-25 04:35:00,
2013-07-25 01:00:00,74.9,69.4,29.81,WSW,248,0.0,0.0,83,0.00,,,0.00,WUHU216HW,2013-07-25 05:00:00,
2013-07-25 01:05:00,74.9,69.4,29.81,WSW,248,0.0,0.0,83,0.00,,,0.00,WUHU216HW,2013-07-25 05:05:00,
2013-07-25 01:30:00,74.2,68.7,29.81,SSW,203,0.0,0.0,83,0.00,,,0.00,WUHU216HW,2013-07-25 05:30:00,
2013-07-25 01:35:00,74.2,68.7,29.81,SSW,203,0.0,0.0,83,0.00,,,0.00,WUHU216HW,2013-07-25 05:35:00,
2013-07-25 01:59:00,73.6,68.9,29.80,WSW,248,0.0,0.0,85,0.00,,,0.00,WUHU216HW,2013-07-25 05:59:00,
2013-07-25 02:05:00,73.6,68.9,29.80,WSW,248,0.0,0.0,85,0.00,,,0.00,WUHU216HW,2013-07-25 06:05:00,
2013-07-25 02:30:00,72.7,67.2,29.79,NNW,338,0.0,0.0,83,0.00,,,0.00,WUHU216HW,2013-07-25 06:30:00,
2013-07-25 02:35:00,72.7,67.2,29.79,NNW,338,0.0,0.0,83,0.00,,,0.00,WUHU216HW,2013-07-25 06:35:00,
2013-07-25 02:59:00,71.8,67.4,29.78,NE,45,0.4,0.4,86,0.01,,,0.00,WUHU216HW,2013-07-25 06:59:00,
2013-07-25 03:04:00,71.8,67.4,29.78,NE,45,0.4,0.4,86,0.01,,,0.00,WUHU216HW,2013-07-25 07:04:00,
2013-07-25 03:30:00,72.0,68.0,29.78,North,0,0.0,0.0,87,0.01,,,0.00,WUHU216HW,2013-07-25 07:30:00,
2013-07-25 03:35:00,72.0,68.0,29.78,North,0,0.0,0.0,87,0.01,,,0.00,WUHU216HW,2013-07-25 07:35:00,
2013-07-25 03:59:00,72.4,68.0,29.77,NE,45,0.2,0.2,86,0.00,,,0.00,WUHU216HW,2013-07-25 07:59:00,
2013-07-25 04:04:00,72.4,68.0,29.77,NE,45,0.2,0.2,86,0.00,,,0.00,WUHU216HW,2013-07-25 08:04:00,
2013-07-25 04:30:00,72.5,68.1,29.78,North,0,0.4,0.4,86,0.00,,,0.00,WUHU216HW,2013-07-25 08:30:00,
2013-07-25 04:35:00,72.5,68.1,29.78,North,0,0.4,0.4,86,0.00,,,0.00,WUHU216HW,2013-07-25 08:35:00,
2013-07-25 04:59:00,72.0,67.6,29.78,NNE,23,1.6,1.6,86,0.00,,,0.00,WUHU216HW,2013-07-25 08:59:00,
2013-07-25 05:05:00,72.0,67.6,29.78,NNE,23,1.6,1.6,86,0.00,,,0.00,WUHU216HW,2013-07-25 09:05:00,
2013-07-25 05:30:00,71.6,67.2,29.79,NNW,338,0.9,0.9,86,0.00,,,0.00,WUHU216HW,2013-07-25 09:30:00,
2013-07-25 05:35:00,71.6,67.2,29.79,NNW,338,0.9,0.9,86,0.00,,,0.00,WUHU216HW,2013-07-25 09:35:00,
2013-07-25 05:59:00,71.3,66.9,29.80,NE,45,0.4,0.4,86,0.00,,,0.00,WUHU216HW,2013-07-25 09:59:00,
2013-07-25 06:04:00,71.3,66.9,29.80,NE,45,0.4,0.4,86,0.00,,,0.00,WUHU216HW,2013-07-25 10:04:00,
2013-07-25 06:30:00,71.1,67.1,29.80,NNE,23,0.2,0.2,87,0.00,,,0.00,WUHU216HW,2013-07-25 10:30:00,
2013-07-25 06:35:00,71.1,67.1,29.80,NNE,23,0.2,0.2,87,0.00,,,0.00,WUHU216HW,2013-07-25 10:35:00,
2013-07-25 06:59:00,71.3,67.2,29.81,North,0,0.2,0.2,87,0.00,,,0.00,WUHU216HW,2013-07-25 10:59:00,
2013-07-25 07:00:00,71.3,67.2,29.81,North,0,0.2,0.2,87,0.00,,,0.00,WUHU216HW,2013-07-25 11:00:00,
2013-07-25 07:05:00,71.3,67.2,29.81,North,0,0.2,0.2,87,0.00,,,0.00,WUHU216HW,2013-07-25 11:05:00,
2013-07-25 07:30:00,71.5,67.1,29.82,NNE,23,0.4,0.4,86,0.00,,,0.00,WUHU216HW,2013-07-25 11:30:00,
2013-07-25 07:35:00,71.5,67.1,29.82,NNE,23,0.4,0.4,86,0.00,,,0.00,WUHU216HW,2013-07-25 11:35:00,
2013-07-25 07:59:00,71.5,66.7,29.83,North,0,0.9,0.9,85,0.00,,,0.00,WUHU216HW,2013-07-25 11:59:00,
2013-07-25 08:04:00,71.5,66.7,29.83,North,0,0.9,0.9,85,0.00,,,0.00,WUHU216HW,2013-07-25 12:04:00,
2013-07-25 08:30:00,71.5,66.3,29.84,North,0,0.4,0.4,84,0.00,,,0.00,WUHU216HW,2013-07-25 12:30:00,
2013-07-25 08:35:00,71.5,66.3,29.84,North,0,0.4,0.4,84,0.00,,,0.00,WUHU216HW,2013-07-25 12:35:00,
2013-07-25 09:00:00,71.6,66.5,29.85,East,90,1.1,1.1,84,0.00,,,0.00,WUHU216HW,2013-07-25 13:00:00,
2013-07-25 09:05:00,71.6,66.5,29.85,East,90,1.1,1.1,84,0.00,,,0.00,WUHU216HW,2013-07-25 13:05:00,
2013-07-25 09:30:00,72.0,66.5,29.86,NNW,338,0.7,0.7,83,0.00,,,0.00,WUHU216HW,2013-07-25 13:30:00,
2013-07-25 09:35:00,72.0,66.5,29.86,NNW,338,0.7,0.7,83,0.00,,,0.00,WUHU216HW,2013-07-25 13:35:00,
2013-07-25 09:59:00,72.4,66.9,29.86,North,0,1.3,1.3,83,0.00,,,0.00,WUHU216HW,2013-07-25 13:59:00,
2013-07-25 10:04:00,72.4,66.9,29.86,North,0,1.3,1.3,83,0.00,,,0.00,WUHU216HW,2013-07-25 14:04:00,
2013-07-25 10:30:00,72.5,67.1,29.87,NW,315,0.4,0.4,83,0.00,,,0.00,WUHU216HW,2013-07-25 14:30:00,
2013-07-25 10:35:00,72.5,67.1,29.87,NW,315,0.4,0.4,83,0.00,,,0.00,WUHU216HW,2013-07-25 14:35:00,
2013-07-25 10:59:00,72.5,66.8,29.88,North,0,0.7,0.7,82,0.00,,,0.00,WUHU216HW,2013-07-25 14:59:00,
2013-07-25 11:04:00,72.5,66.8,29.88,North,0,0.7,0.7,82,0.00,,,0.00,WUHU216HW,2013-07-25 15:04:00,
2013-07-25 11:30:00,72.9,67.4,29.89,NNE,23,0.4,0.4,83,0.00,,,0.00,WUHU216HW,2013-07-25 15:30:00,
2013-07-25 11:35:00,72.9,67.4,29.89,NNE,23,0.4,0.4,83,0.00,,,0.00,WUHU216HW,2013-07-25 15:35:00,
2013-07-25 11:59:00,73.8,67.7,29.90,WSW,248,2.0,2.0,81,0.00,,,0.00,WUHU216HW,2013-07-25 15:59:00,
2013-07-25 12:05:00,73.8,67.7,29.90,WSW,248,2.0,2.0,81,0.00,,,0.00,WUHU216HW,2013-07-25 16:05:00,
2013-07-25 12:30:00,74.3,68.2,29.90,North,0,0.4,0.4,81,0.00,,,0.00,WUHU216HW,2013-07-25 16:30:00,
2013-07-25 12:35:00,74.3,68.2,29.90,North,0,0.4,0.4,81,0.00,,,0.00,WUHU216HW,2013-07-25 16:35:00,
2013-07-25 13:00:00,75.2,68.8,29.89,North,0,0.7,0.7,80,0.00,,,0.00,WUHU216HW,2013-07-25 17:00:00,
2013-07-25 13:05:00,75.2,68.8,29.89,North,0,0.7,0.7,80,0.00,,,0.00,WUHU216HW,2013-07-25 17:05:00,
2013-07-25 13:30:00,76.0,68.7,29.90,NE,45,0.0,0.0,78,0.00,,,0.00,WUHU216HW,2013-07-25 17:30:00,
2013-07-25 13:35:00,76.0,68.7,29.90,NE,45,0.0,0.0,78,0.00,,,0.00,WUHU216HW,2013-07-25 17:35:00,
2013-07-25 13:59:00,76.1,68.4,29.89,NNE,23,1.1,1.1,77,0.00,,,0.00,WUHU216HW,2013-07-25 17:59:00,
2013-07-25 14:00:00,76.1,68.4,29.89,NNE,23,1.1,1.1,77,0.00,,,0.00,WUHU216HW,2013-07-25 18:00:00,
2013-07-25 14:05:00,76.1,68.4,29.89,NNE,23,1.1,1.1,77,0.00,,,0.00,WUHU216HW,2013-07-25 18:05:00,
2013-07-25 14:29:00,76.5,68.8,29.89,SE,135,0.0,0.0,77,0.00,,,0.00,WUHU216HW,2013-07-25 18:29:00,
2013-07-25 14:34:00,76.5,68.8,29.89,SE,135,0.0,0.0,77,0.00,,,0.00,WUHU216HW,2013-07-25 18:34:00,
2013-07-25 14:35:00,76.5,68.8,29.89,SE,135,0.0,0.0,77,0.00,,,0.00,WUHU216HW,2013-07-25 18:35:00,
2013-07-25 14:59:00,77.2,69.4,29.90,NNE,23,0.4,0.4,77,0.00,,,0.00,WUHU216HW,2013-07-25 18:59:00,
2013-07-25 15:04:00,77.2,69.4,29.90,NNE,23,0.4,0.4,77,0.00,,,0.00,WUHU216HW,2013-07-25 19:04:00,
2013-07-25 15:29:00,78.8,69.9,29.89,North,0,0.4,0.4,74,0.00,,,0.00,WUHU216HW,2013-07-25 19:29:00,
2013-07-25 15:34:00,78.8,69.9,29.89,North,0,0.4,0.4,74,0.00,,,0.00,WUHU216HW,2013-07-25 19:34:00,
2013-07-25 15:59:00,78.1,69.1,29.89,North,0,1.1,1.1,74,0.00,,,0.00,WUHU216HW,2013-07-25 19:59:00,
2013-07-25 16:04:00,78.1,69.1,29.89,North,0,1.1,1.1,74,0.00,,,0.00,WUHU216HW,2013-07-25 20:04:00,
2013-07-25 16:29:00,79.6,69.3,29.89,NNE,23,2.0,2.0,71,0.00,,,0.00,WUHU216HW,2013-07-25 20:29:00,
2013-07-25 16:34:00,79.6,69.3,29.89,NNE,23,2.0,2.0,71,0.00,,,0.00,WUHU216HW,2013-07-25 20:34:00,
2013-07-25 16:59:00,79.2,69.4,29.90,NNW,338,1.1,1.1,72,0.00,,,0.00,WUHU216HW,2013-07-25 20:59:00,
2013-07-25 17:04:00,79.2,69.4,29.90,NNW,338,1.1,1.1,72,0.00,,,0.00,WUHU216HW,2013-07-25 21:04:00,
2013-07-25 17:29:00,79.6,69.3,29.90,NNW,338,0.9,0.9,71,0.00,,,0.00,WUHU216HW,2013-07-25 21:29:00,
2013-07-25 17:34:00,79.6,69.3,29.90,NNW,338,0.9,0.9,71,0.00,,,0.00,WUHU216HW,2013-07-25 21:34:00,
2013-07-25 17:59:00,79.9,69.7,29.90,North,0,1.8,1.8,71,0.00,,,0.00,WUHU216HW,2013-07-25 21:59:00,
2013-07-25 18:04:00,79.9,69.7,29.90,North,0,1.8,1.8,71,0.00,,,0.00,WUHU216HW,2013-07-25 22:04:00,
2013-07-25 18:29:00,79.2,68.6,29.89,NW,315,1.6,1.6,70,0.00,,,0.00,WUHU216HW,2013-07-25 22:29:00,
2013-07-25 18:34:00,79.2,68.6,29.89,NW,315,1.6,1.6,70,0.00,,,0.00,WUHU216HW,2013-07-25 22:34:00,
2013-07-25 18:59:00,78.5,67.9,29.90,North,0,0.9,0.9,70,0.00,,,0.00,WUHU216HW,2013-07-25 22:59:00,
2013-07-25 19:04:00,78.5,67.9,29.90,North,0,0.9,0.9,70,0.00,,,0.00,WUHU216HW,2013-07-25 23:04:00,
2013-07-25 19:29:00,77.8,67.6,29.91,ENE,68,0.4,0.4,71,0.00,,,0.00,WUHU216HW,2013-07-25 23:29:00,
2013-07-25 19:35:00,77.8,67.6,29.91,ENE,68,0.4,0.4,71,0.00,,,0.00,WUHU216HW,2013-07-25 23:35:00,
2013-07-25 19:59:00,77.0,67.3,29.92,NNE,23,0.2,0.2,72,0.00,,,0.00,WUHU216HW,2013-07-25 23:59:00,
2013-07-25 20:04:00,77.0,67.3,29.92,NNE,23,0.2,0.2,72,0.00,,,0.00,WUHU216HW,2013-07-26 00:04:00,
2013-07-25 20:30:00,76.0,66.7,29.93,NNW,338,0.0,0.0,73,0.00,,,0.00,WUHU216HW,2013-07-26 00:30:00,
2013-07-25 20:35:00,76.0,66.7,29.93,NNW,338,0.0,0.0,73,0.00,,,0.00,WUHU216HW,2013-07-26 00:35:00,
2013-07-25 20:59:00,75.6,67.2,29.93,North,0,0.0,0.0,75,0.00,,,0.00,WUHU216HW,2013-07-26 00:59:00,
2013-07-25 21:04:00,75.6,67.2,29.93,North,0,0.0,0.0,75,0.00,,,0.00,WUHU216HW,2013-07-26 01:04:00,
2013-07-25 21:09:00,75.6,67.2,29.93,North,0,0.0,0.0,75,0.00,,,0.00,WUHU216HW,2013-07-26 01:09:00,
2013-07-25 21:29:00,75.2,67.1,29.95,NNE,23,0.0,0.0,76,0.00,,,0.00,WUHU216HW,2013-07-26 01:29:00,
2013-07-25 21:34:00,75.2,67.1,29.95,NNE,23,0.0,0.0,76,0.00,,,0.00,WUHU216HW,2013-07-26 01:34:00,
2013-07-25 21:59:00,74.9,66.9,29.95,NW,315,0.0,0.0,76,0.00,,,0.00,WUHU216HW,2013-07-26 01:59:00,
2013-07-25 22:04:00,74.9,66.9,29.95,NW,315,0.0,0.0,76,0.00,,,0.00,WUHU216HW,2013-07-26 02:04:00,
2013-07-25 22:29:00,74.5,66.9,29.97,NW,315,0.0,0.0,77,0.00,,,0.00,WUHU216HW,2013-07-26 02:29:00,
2013-07-25 22:34:00,74.5,66.9,29.97,NW,315,0.0,0.0,77,0.00,,,0.00,WUHU216HW,2013-07-26 02:34:00,
2013-07-25 22:59:00,73.6,66.0,29.97,North,0,0.0,0.0,77,0.00,,,0.00,WUHU216HW,2013-07-26 02:59:00,
2013-07-25 23:04:00,73.6,66.0,29.97,North,0,0.0,0.0,77,0.00,,,0.00,WUHU216HW,2013-07-26 03:04:00,
2013-07-25 23:30:00,72.7,65.5,29.98,NNW,338,0.0,0.0,78,0.00,,,0.00,WUHU216HW,2013-07-26 03:30:00,
2013-07-25 23:35:00,72.7,65.5,29.98,NNW,338,0.0,0.0,78,0.00,,,0.00,WUHU216HW,2013-07-26 03:35:00,